createdAt,value
2019-02-09T00:00:13.611Z,99501.56
2019-02-09T00:03:20.901Z,99513.52
2019-02-09T00:06:27.380Z,99504.72
2019-02-09T00:09:34.666Z,99501.75
2019-02-09T00:12:41.867Z,99509.41
2019-02-09T00:15:49.239Z,99497.00
2019-02-09T00:18:56.641Z,99507.80
2019-02-09T00:22:03.876Z,99492.99
2019-02-09T00:25:11.332Z,99481.35
2019-02-09T00:28:18.413Z,99490.62
2019-02-09T00:31:24.883Z,99481.13
2019-02-09T00:34:41.336Z,99465.84
2019-02-09T00:37:48.701Z,99465.66
2019-02-09T00:41:05.312Z,99459.17
2019-02-09T00:44:21.989Z,99462.83
2019-02-09T00:47:29.250Z,99452.78
2019-02-09T00:50:36.441Z,99448.92
2019-02-09T00:53:43.569Z,99446.86
2019-02-09T00:56:50.744Z,99432.03
2019-02-09T00:59:57.868Z,99427.34
2019-02-09T01:03:05.430Z,99433.81
2019-02-09T01:06:22.028Z,99428.34
2019-02-09T01:09:29.282Z,99428.48
2019-02-09T01:12:46.053Z,99422.59
2019-02-09T01:15:53.145Z,99425.24
2019-02-09T01:19:00.440Z,99421.64
2019-02-09T01:22:07.195Z,99421.64
2019-02-09T01:25:14.595Z,99420.09
2019-02-09T01:28:21.811Z,99417.04
2019-02-09T01:31:28.999Z,99407.91
2019-02-09T01:34:36.341Z,99405.19
2019-02-09T01:37:43.926Z,99398.55
2019-02-09T01:41:00.366Z,99387.62
2019-02-09T01:44:17.356Z,99396.25
2019-02-09T01:47:33.882Z,99382.02
2019-02-09T01:50:50.674Z,99383.20
2019-02-09T01:53:57.801Z,99383.75
2019-02-09T01:57:05.094Z,99388.50
2019-02-09T02:00:23.808Z,99379.05
2019-02-09T02:03:40.489Z,99371.35
2019-02-09T02:06:56.909Z,99375.87
2019-02-09T02:10:05.169Z,99375.03
2019-02-09T02:13:12.394Z,99362.73
2019-02-09T02:16:19.712Z,99354.57
2019-02-09T02:19:27.130Z,99351.15
2019-02-09T02:22:34.273Z,99344.54
2019-02-09T02:25:41.667Z,99343.55
2019-02-09T02:28:48.909Z,99340.08
2019-02-09T02:31:56.269Z,99326.41
2019-02-09T02:35:13.284Z,99317.66
2019-02-09T02:38:29.694Z,99313.09
2019-02-09T02:41:46.454Z,99312.00
2019-02-09T02:45:03.312Z,99296.32
2019-02-09T02:48:19.973Z,99303.34
2019-02-09T02:51:27.089Z,99296.38
2019-02-09T02:54:34.297Z,99287.95
2019-02-09T02:57:41.599Z,99281.14
2019-02-09T03:00:48.880Z,99285.34
2019-02-09T03:03:56.076Z,99273.31
2019-02-09T03:07:12.878Z,99264.29
2019-02-09T03:10:20.185Z,99252.23
2019-02-09T03:13:36.849Z,99251.44
2019-02-09T03:16:44.145Z,99250.77
2019-02-09T03:19:51.299Z,99258.70
2019-02-09T03:22:58.488Z,99246.88
2019-02-09T03:26:05.762Z,99241.41
2019-02-09T03:29:22.455Z,99244.36
2019-02-09T03:32:29.791Z,99252.50
2019-02-09T03:35:46.360Z,99237.68
2019-02-09T03:38:53.653Z,99259.22
2019-02-09T03:42:10.481Z,99250.20
2019-02-09T03:45:28.878Z,99247.83
2019-02-09T03:48:36.002Z,99248.92
2019-02-09T03:51:43.231Z,99247.19
2019-02-09T03:54:50.348Z,99231.87
2019-02-09T03:57:57.577Z,99228.96
2019-02-09T04:01:05.278Z,99233.58
2019-02-09T04:04:21.479Z,99226.23
2019-02-09T04:07:28.894Z,99230.45
2019-02-09T04:10:45.568Z,99220.42
2019-02-09T04:13:52.689Z,99223.58
2019-02-09T04:16:58.771Z,99219.84
2019-02-09T04:20:16.115Z,99207.84
2019-02-09T04:23:23.245Z,99213.09
2019-02-09T04:26:30.374Z,99204.53
2019-02-09T04:29:37.518Z,99213.74
2019-02-09T04:32:44.900Z,99218.57
2019-02-09T04:35:52.214Z,99204.17
2019-02-09T04:38:59.677Z,99206.02
2019-02-09T04:42:06.880Z,99200.44
2019-02-09T04:45:12.927Z,99197.60
2019-02-09T04:48:29.442Z,99183.56
2019-02-09T04:51:46.137Z,99190.86
2019-02-09T04:54:53.258Z,99189.22
2019-02-09T04:58:00.554Z,99190.88
2019-02-09T05:01:13.871Z,99192.52
2019-02-09T05:04:26.353Z,99189.34
2019-02-09T05:07:42.959Z,99194.81
2019-02-09T05:10:50.249Z,99195.44
2019-02-09T05:14:06.893Z,99195.23
2019-02-09T05:17:13.703Z,99204.45
2019-02-09T05:20:22.055Z,99199.52
2019-02-09T05:23:29.259Z,99206.20
2019-02-09T05:26:36.454Z,99202.50
2019-02-09T05:29:43.681Z,99195.97
2019-02-09T05:32:51.081Z,99191.47
2019-02-09T05:35:58.357Z,99196.33
2019-02-09T05:39:08.118Z,99204.45
2019-02-09T05:42:24.519Z,99194.70
2019-02-09T05:45:41.179Z,99186.87
2019-02-09T05:48:48.557Z,99176.56
2019-02-09T05:52:05.281Z,99178.92
2019-02-09T05:55:25.912Z,99177.94
2019-02-09T05:58:33.315Z,99175.27
2019-02-09T06:01:49.670Z,99175.74
2019-02-09T06:04:56.880Z,99162.80
2019-02-09T06:08:04.267Z,99172.81
2019-02-09T06:11:20.921Z,99163.79
2019-02-09T06:14:37.604Z,99165.06
2019-02-09T06:17:44.825Z,99170.70
2019-02-09T06:20:51.942Z,99182.57
2019-02-09T06:23:57.473Z,99175.61
2019-02-09T06:27:05.146Z,99177.56
2019-02-09T06:30:23.580Z,99193.69
2019-02-09T06:33:41.211Z,99192.98
2019-02-09T06:36:48.394Z,99201.70
2019-02-09T06:39:55.588Z,99210.56
2019-02-09T06:43:03.891Z,99207.56
2019-02-09T06:46:11.333Z,99195.44
2019-02-09T06:49:18.474Z,99199.45
2019-02-09T06:52:25.593Z,99198.45
2019-02-09T06:55:32.825Z,99184.59
2019-02-09T06:58:40.043Z,99187.78
2019-02-09T07:01:48.770Z,99191.95
2019-02-09T07:04:56.268Z,99186.77
2019-02-09T07:08:03.841Z,99199.90
2019-02-09T07:11:11.032Z,99198.72
2019-02-09T07:14:18.264Z,99202.16
2019-02-09T07:17:25.369Z,99213.28
2019-02-09T07:20:32.581Z,99215.98
2019-02-09T07:23:39.747Z,99213.44
2019-02-09T07:26:47.065Z,99205.20
2019-02-09T07:29:54.186Z,99216.98
2019-02-09T07:33:01.787Z,99212.67
2019-02-09T07:36:18.315Z,99213.26
2019-02-09T07:39:25.438Z,99219.45
2019-02-09T07:42:32.622Z,99223.31
2019-02-09T07:45:39.906Z,99232.24
2019-02-09T07:48:47.121Z,99228.59
2019-02-09T07:51:54.356Z,99234.89
2019-02-09T07:55:01.631Z,99232.94
2019-02-09T07:58:09.086Z,99229.48
2019-02-09T08:01:25.567Z,99236.00
2019-02-09T08:04:32.775Z,99246.55
2019-02-09T08:07:49.540Z,99250.59
2019-02-09T08:11:09.119Z,99250.34
2019-02-09T08:14:15.082Z,99251.50
2019-02-09T08:17:22.302Z,99259.34
2019-02-09T08:20:29.695Z,99264.20
2019-02-09T08:23:46.300Z,99243.78
2019-02-09T08:26:53.453Z,99250.62
2019-02-09T08:30:00.651Z,99255.36
2019-02-09T08:33:07.952Z,99266.39
2019-02-09T08:36:15.494Z,99267.76
2019-02-09T08:39:31.865Z,99256.22
2019-02-09T08:42:39.975Z,99261.95
2019-02-09T08:45:47.366Z,99253.83
2019-02-09T08:48:54.566Z,99257.50
2019-02-09T08:52:01.731Z,99262.61
2019-02-09T08:55:09.055Z,99254.04
2019-02-09T08:58:16.258Z,99253.58
2019-02-09T09:01:23.457Z,99268.27
2019-02-09T09:04:30.749Z,99260.61
2019-02-09T09:07:38.084Z,99272.09
2019-02-09T09:10:45.367Z,99268.91
2019-02-09T09:13:52.544Z,99267.19
2019-02-09T09:16:59.693Z,99259.53
2019-02-09T09:20:11.952Z,99249.38
2019-02-09T09:23:19.160Z,99260.08
2019-02-09T09:26:26.392Z,99275.41
2019-02-09T09:29:43.063Z,99283.16
2019-02-09T09:32:50.267Z,99269.19
2019-02-09T09:35:57.470Z,99277.03
2019-02-09T09:39:08.238Z,99279.97
2019-02-09T09:42:24.661Z,99274.48
2019-02-09T09:45:41.736Z,99271.93
2019-02-09T09:48:58.117Z,99281.34
2019-02-09T09:52:05.545Z,99280.23
2019-02-09T09:55:22.218Z,99281.50
2019-02-09T09:58:39.042Z,99278.30
2019-02-09T10:01:44.569Z,99291.80
2019-02-09T10:04:51.691Z,99292.47
2019-02-09T10:07:58.970Z,99286.98
2019-02-09T10:11:06.086Z,99292.10
2019-02-09T10:14:13.323Z,99287.08
2019-02-09T10:17:20.511Z,99292.17
2019-02-09T10:20:27.749Z,99302.95
2019-02-09T10:23:34.856Z,99295.55
2019-02-09T10:26:42.056Z,99292.99
2019-02-09T10:29:49.258Z,99287.41
2019-02-09T10:32:56.532Z,99294.16
2019-02-09T10:36:03.808Z,99297.08
2019-02-09T10:39:11.012Z,99303.64
2019-02-09T10:42:18.131Z,99321.29
2019-02-09T10:45:35.078Z,99293.24
2019-02-09T10:48:51.858Z,99304.20
2019-02-09T10:51:59.133Z,99309.77
2019-02-09T10:55:06.907Z,99312.80
2019-02-09T10:58:14.270Z,99305.77
2019-02-09T11:01:22.669Z,99299.43
2019-02-09T11:04:39.144Z,99295.96
2019-02-09T11:07:55.942Z,99306.19
2019-02-09T11:11:12.950Z,99306.08
2019-02-09T11:14:29.340Z,99307.84
2019-02-09T11:17:36.537Z,99298.06
2019-02-09T11:20:43.920Z,99292.06
2019-02-09T11:24:00.577Z,99305.38
2019-02-09T11:27:07.843Z,99301.53
2019-02-09T11:30:17.714Z,99306.70
2019-02-09T11:33:25.163Z,99285.77
2019-02-09T11:36:32.488Z,99301.84
2019-02-09T11:39:39.672Z,99298.56
2019-02-09T11:42:47.043Z,99302.30
2019-02-09T11:45:54.177Z,99297.64
2019-02-09T11:49:01.398Z,99296.00
2019-02-09T11:52:08.719Z,99310.95
2019-02-09T11:55:25.452Z,99303.43
2019-02-09T11:58:32.690Z,99300.50
2019-02-09T12:01:49.290Z,99298.25
2019-02-09T12:04:56.557Z,99293.20
2019-02-09T12:08:04.500Z,99296.36
2019-02-09T12:11:11.765Z,99279.17
2019-02-09T12:14:19.249Z,99272.88
2019-02-09T12:17:26.440Z,99281.75
2019-02-09T12:20:33.639Z,99277.16
2019-02-09T12:23:42.495Z,99281.94
2019-02-09T12:26:49.722Z,99282.16
2019-02-09T12:29:56.927Z,99282.30
2019-02-09T12:33:04.762Z,99275.31
2019-02-09T12:36:21.279Z,99271.02
2019-02-09T12:39:28.577Z,99281.80
2019-02-09T12:42:35.824Z,99272.64
2019-02-09T12:45:52.559Z,99277.40
2019-02-09T12:48:59.764Z,99274.36
2019-02-09T12:52:07.144Z,99298.00
2019-02-09T12:55:24.019Z,99288.11
2019-02-09T12:58:40.506Z,99280.58
2019-02-09T13:01:57.451Z,99277.22
2019-02-09T13:05:14.095Z,99299.60
2019-02-09T13:08:21.294Z,99281.00
2019-02-09T13:11:28.414Z,99287.86
2019-02-09T13:14:35.714Z,99288.44
2019-02-09T13:17:42.909Z,99301.94
2019-02-09T13:20:50.172Z,99291.10
2019-02-09T13:24:06.896Z,99276.70
2019-02-09T13:27:23.529Z,99276.05
2019-02-09T13:30:31.888Z,99273.44
2019-02-09T13:33:39.263Z,99277.30
2019-02-09T13:36:46.425Z,99276.00
2019-02-09T13:39:53.692Z,99271.87
2019-02-09T13:43:01.080Z,99279.97
2019-02-09T13:46:08.371Z,99290.69
2019-02-09T13:49:15.672Z,99272.20
2019-02-09T13:52:32.372Z,99278.09
2019-02-09T13:55:39.599Z,99281.58
2019-02-09T13:58:46.735Z,99283.94
2019-02-09T14:01:53.938Z,99277.19
2019-02-09T14:05:01.163Z,99286.13
2019-02-09T14:08:09.167Z,99284.77
2019-02-09T14:11:16.366Z,99288.92
2019-02-09T14:14:23.780Z,99279.15
2019-02-09T14:17:30.980Z,99282.86
2019-02-09T14:20:38.192Z,99279.95
2019-02-09T14:23:45.316Z,99279.14
2019-02-09T14:26:52.526Z,99301.19
2019-02-09T14:29:59.761Z,99322.28
2019-02-09T14:33:09.115Z,99288.68
2019-02-09T14:36:25.971Z,99281.37
2019-02-09T14:39:33.089Z,99302.38
2019-02-09T14:42:50.053Z,99288.14
2019-02-09T14:46:06.651Z,99304.22
2019-02-09T14:49:14.029Z,99315.30
2019-02-09T14:52:30.624Z,99334.42
2019-02-09T14:55:38.389Z,99383.78
2019-02-09T14:58:54.552Z,99390.80
2019-02-09T15:02:01.755Z,99430.17
2019-02-09T15:05:09.306Z,99423.53
2019-02-09T15:08:25.659Z,99424.66
2019-02-09T15:11:31.734Z,99431.61
2019-02-09T15:14:48.182Z,99425.84
2019-02-09T15:18:06.436Z,99422.50
2019-02-09T15:21:13.843Z,99435.63
2019-02-09T15:24:30.482Z,99415.27
2019-02-09T15:27:37.601Z,99423.30
2019-02-09T15:30:45.080Z,99420.88
2019-02-09T15:34:01.632Z,99433.13
2019-02-09T15:37:08.784Z,99439.20
2019-02-09T15:40:17.670Z,99436.02
2019-02-09T15:43:24.880Z,99436.91
2019-02-09T15:46:31.032Z,99436.42
2019-02-09T15:49:38.303Z,99435.34
2019-02-09T15:52:45.970Z,99432.05
2019-02-09T15:55:53.191Z,99437.72
2019-02-09T15:59:00.296Z,99446.66
2019-02-09T16:02:07.572Z,99444.09
2019-02-09T16:05:14.797Z,99453.09
2019-02-09T16:08:21.921Z,99444.09
2019-02-09T16:11:29.198Z,99451.53
2019-02-09T16:14:36.418Z,99440.50
2019-02-09T16:17:43.601Z,99445.60
2019-02-09T16:20:50.827Z,99459.84
2019-02-09T16:23:58.151Z,99451.76
2019-02-09T16:27:05.692Z,99442.10
2019-02-09T16:30:18.588Z,99454.95
2019-02-09T16:33:24.398Z,99471.50
2019-02-09T16:36:31.893Z,99458.23
2019-02-09T16:39:39.015Z,99461.28
2019-02-09T16:42:46.220Z,99458.40
2019-02-09T16:45:53.396Z,99475.73
2019-02-09T16:49:00.622Z,99468.70
2019-02-09T16:52:07.818Z,99463.84
2019-02-09T16:55:16.281Z,99463.78
2019-02-09T16:58:23.709Z,99475.41
2019-02-09T17:01:30.838Z,99470.91
2019-02-09T17:04:38.033Z,99493.37
2019-02-09T17:07:45.332Z,99490.38
2019-02-09T17:10:52.629Z,99508.88
2019-02-09T17:13:58.247Z,99501.70
2019-02-09T17:17:05.530Z,99522.55
2019-02-09T17:20:13.043Z,99528.77
2019-02-09T17:23:29.612Z,99529.19
2019-02-09T17:26:36.805Z,99553.30
2019-02-09T17:29:44.010Z,99539.98
2019-02-09T17:32:51.483Z,99539.23
2019-02-09T17:36:11.976Z,99553.39
2019-02-09T17:39:19.193Z,99567.97
2019-02-09T17:42:26.352Z,99567.98
2019-02-09T17:45:42.898Z,99562.88
2019-02-09T17:48:50.114Z,99616.70
2019-02-09T17:51:57.412Z,99605.45
2019-02-09T17:55:06.125Z,99598.38
2019-02-09T17:58:13.325Z,99617.00
2019-02-09T18:01:20.614Z,99622.83
2019-02-09T18:04:27.925Z,99622.53
2019-02-09T18:07:35.138Z,99622.38
2019-02-09T18:10:42.258Z,99625.83
2019-02-09T18:13:50.065Z,99621.85
2019-02-09T18:16:57.220Z,99610.70
2019-02-09T18:20:14.771Z,99613.91
2019-02-09T18:23:22.008Z,99610.63
2019-02-09T18:26:29.491Z,99608.36
2019-02-09T18:29:36.610Z,99611.36
2019-02-09T18:32:44.894Z,99617.45
2019-02-09T18:35:52.189Z,99622.03
2019-02-09T18:38:59.378Z,99613.16
2019-02-09T18:46:17.079Z,99604.55
2019-02-09T18:49:33.387Z,99616.33
2019-02-09T18:52:40.791Z,99617.81
2019-02-09T18:55:58.103Z,99627.64
2019-02-09T18:59:05.294Z,99623.00
2019-02-09T19:02:12.673Z,99617.64
2019-02-09T19:05:20.236Z,99626.13
2019-02-09T19:08:27.625Z,99619.75
2019-02-09T19:11:34.905Z,99634.77
2019-02-09T19:14:42.097Z,99638.80
2019-02-09T19:17:49.487Z,99643.09
2019-02-09T19:21:12.522Z,99642.09
2019-02-09T19:24:20.543Z,99655.47
2019-02-09T19:27:28.025Z,99657.48
2019-02-09T19:30:35.699Z,99659.59
2019-02-09T19:33:42.419Z,99650.04
2019-02-09T19:36:49.665Z,99656.75
2019-02-09T19:39:56.954Z,99659.59
2019-02-09T19:43:04.282Z,99671.00
2019-02-09T19:46:11.482Z,99665.77
2019-02-09T19:49:18.709Z,99680.59
2019-02-09T19:52:26.002Z,99689.89
2019-02-09T19:55:33.217Z,99676.10
2019-02-09T19:58:40.414Z,99681.29
2019-02-09T20:01:47.811Z,99687.42
2019-02-09T20:04:54.934Z,99689.98
2019-02-09T20:08:02.134Z,99696.82
2019-02-09T20:11:09.435Z,99690.22
2019-02-09T20:14:16.781Z,99698.55
2019-02-09T20:17:23.978Z,99709.66
2019-02-09T20:20:31.174Z,99706.66
2019-02-09T20:23:47.875Z,99723.25
2019-02-09T20:26:55.077Z,99711.52
2019-02-09T20:30:18.458Z,99723.98
2019-02-09T20:33:35.011Z,99721.15
2019-02-09T20:36:42.238Z,99730.51
2019-02-09T20:39:49.408Z,99727.91
2019-02-09T20:43:01.768Z,99741.50
2019-02-09T20:46:15.036Z,99757.69
2019-02-09T20:49:34.311Z,99737.78
2019-02-09T20:52:39.918Z,99733.59
2019-02-09T20:55:56.924Z,99736.72
2019-02-09T20:59:04.118Z,99746.80
2019-02-09T21:02:11.379Z,99755.73
2019-02-09T21:05:35.658Z,99750.83
2019-02-09T21:08:46.521Z,99763.59
2019-02-09T21:11:53.693Z,99765.19
2019-02-09T21:15:01.056Z,99758.95
2019-02-09T21:18:17.600Z,99762.45
2019-02-09T21:21:24.719Z,99762.70
2019-02-09T21:24:31.844Z,99769.38
2019-02-09T21:27:39.109Z,99767.89
2019-02-09T21:30:46.227Z,99774.19
2019-02-09T21:33:53.748Z,99767.73
2019-02-09T21:37:10.364Z,99767.11
2019-02-09T21:40:28.080Z,99775.78
2019-02-09T21:43:35.378Z,99773.22
2019-02-09T21:46:42.695Z,99777.95
2019-02-09T21:49:48.780Z,99775.94
2019-02-09T21:52:56.070Z,99789.38
2019-02-09T21:56:12.692Z,99805.08
2019-02-09T21:59:19.914Z,99789.17
2019-02-09T22:02:42.299Z,99785.88
2019-02-09T22:05:55.031Z,99792.88
2019-02-09T22:09:11.788Z,99789.70
2019-02-09T22:12:28.579Z,99798.73
2019-02-09T22:15:38.896Z,99800.22
2019-02-09T22:18:44.355Z,99802.56
2019-02-09T22:21:51.881Z,99805.94
2019-02-09T22:25:11.192Z,99790.66
2019-02-09T22:28:18.312Z,99808.33
2019-02-09T22:31:25.606Z,99809.77
2019-02-09T22:34:32.826Z,99816.16
2019-02-09T22:37:39.938Z,99807.22
2019-02-09T22:40:47.153Z,99803.67
2019-02-09T22:43:54.361Z,99819.61
2019-02-09T22:46:59.890Z,99826.00
2019-02-09T22:50:10.121Z,99820.81
2019-02-09T22:53:17.240Z,99832.22
2019-02-09T22:56:24.434Z,99819.69
2019-02-09T22:59:31.726Z,99814.49
2019-02-09T23:02:39.309Z,99830.22
2019-02-09T23:06:31.357Z,99827.20
2019-02-09T23:09:38.577Z,99823.76
2019-02-09T23:12:48.540Z,99833.20
2019-02-09T23:15:53.939Z,99829.81
2019-02-09T23:19:00.344Z,99845.76
2019-02-09T23:22:06.543Z,99831.27
2019-02-09T23:25:22.970Z,99831.80
2019-02-09T23:28:30.091Z,99830.14
2019-02-09T23:31:37.311Z,99831.03
2019-02-09T23:34:44.501Z,99823.38
2019-02-09T23:37:51.685Z,99839.30
2019-02-09T23:40:58.926Z,99832.62
2019-02-09T23:44:15.603Z,99839.44
2019-02-09T23:47:32.340Z,99831.34
2019-02-09T23:50:39.476Z,99829.31
2019-02-09T23:53:44.995Z,99828.54
2019-02-09T23:56:52.342Z,99830.66
2019-02-09T23:59:59.560Z,99825.61
